createdAt,value
2022-09-22T00:02:18.738Z,10.19
2022-09-22T00:05:03.754Z,10.18
2022-09-22T00:07:49.448Z,10.18
2022-09-22T00:10:33.161Z,10.23
2022-09-22T00:13:16.916Z,10.15
2022-09-22T00:16:01.595Z,9.98
2022-09-22T00:18:45.763Z,10.20
2022-09-22T00:21:31.200Z,9.97
2022-09-22T00:24:17.909Z,9.99
2022-09-22T00:27:01.841Z,9.93
2022-09-22T00:29:45.711Z,10.13
2022-09-22T00:32:29.460Z,10.07
2022-09-22T00:35:13.431Z,9.85
2022-09-22T00:37:57.215Z,10.12
2022-09-22T00:40:42.504Z,10.00
2022-09-22T00:43:28.250Z,10.20
2022-09-22T00:46:17.504Z,9.93
2022-09-22T00:49:05.805Z,9.93
2022-09-22T00:51:50.058Z,9.95
2022-09-22T00:54:34.923Z,9.94
2022-09-22T00:57:23.812Z,9.77
2022-09-22T01:00:10.847Z,10.03
2022-09-22T01:02:59.249Z,10.11
2022-09-22T01:05:45.047Z,9.87
2022-09-22T01:08:31.502Z,10.02
2022-09-22T01:11:16.504Z,9.94
2022-09-22T01:14:08.547Z,9.93
2022-09-22T01:17:03.192Z,9.60
2022-09-22T01:20:34.980Z,9.76
2022-09-22T01:23:42.734Z,9.80
2022-09-22T01:27:07.510Z,9.55
2022-09-22T01:30:20.728Z,9.66
2022-09-22T01:33:17.948Z,9.71
2022-09-22T01:36:13.410Z,9.77
2022-09-22T01:39:06.885Z,9.80
2022-09-22T01:41:58.499Z,9.76
2022-09-22T01:44:49.290Z,9.86
2022-09-22T01:47:40.766Z,9.81
2022-09-22T01:50:29.085Z,9.66
2022-09-22T01:53:15.508Z,9.63
2022-09-22T01:56:05.867Z,9.61
2022-09-22T01:58:54.021Z,9.42
2022-09-22T02:01:42.499Z,9.72
2022-09-22T02:04:34.473Z,9.79
2022-09-22T02:07:25.517Z,9.59
2022-09-22T02:10:13.629Z,9.89
2022-09-22T02:12:57.388Z,9.92
2022-09-22T02:15:58.734Z,10.00
2022-09-22T02:18:46.658Z,9.04
2022-09-22T02:21:32.242Z,9.91
2022-09-22T02:24:33.194Z,10.06
2022-09-22T02:27:25.640Z,9.96
2022-09-22T02:30:12.744Z,9.87
2022-09-22T02:32:58.865Z,10.10
2022-09-22T02:35:48.705Z,10.07
2022-09-22T02:38:39.944Z,9.78
2022-09-22T02:41:30.988Z,9.93
2022-09-22T02:44:21.343Z,10.07
2022-09-22T02:47:11.107Z,9.94
2022-09-22T02:49:56.966Z,10.23
2022-09-22T02:52:42.049Z,9.80
2022-09-22T02:55:27.494Z,9.80
2022-09-22T02:58:11.560Z,9.62
2022-09-22T03:00:55.539Z,9.63
2022-09-22T03:03:39.584Z,9.91
2022-09-22T03:06:23.600Z,9.67
2022-09-22T03:09:07.681Z,9.65
2022-09-22T03:11:53.484Z,9.92
2022-09-22T03:14:37.524Z,9.79
2022-09-22T03:17:21.544Z,9.76
2022-09-22T03:20:06.920Z,9.68
2022-09-22T03:22:51.072Z,10.02
2022-09-22T03:25:35.432Z,10.07
2022-09-22T03:28:21.473Z,9.44
2022-09-22T03:31:05.499Z,10.01
2022-09-22T03:33:52.754Z,9.96
2022-09-22T03:36:37.048Z,9.57
2022-09-22T03:39:21.460Z,9.92
2022-09-22T03:42:05.788Z,9.59
2022-09-22T03:44:51.177Z,9.70
2022-09-22T03:47:35.086Z,9.60
2022-09-22T03:50:19.229Z,9.51
2022-09-22T03:53:03.216Z,9.54
2022-09-22T03:55:47.320Z,9.47
2022-09-22T03:58:31.242Z,9.77
2022-09-22T04:01:17.134Z,9.61
2022-09-22T04:04:01.285Z,9.52
2022-09-22T04:06:45.418Z,9.42
2022-09-22T04:09:29.354Z,9.34
2022-09-22T04:12:13.285Z,9.58
2022-09-22T04:14:57.264Z,9.77
2022-09-22T04:17:42.684Z,9.45
2022-09-22T04:20:27.375Z,9.58
2022-09-22T04:23:11.542Z,9.35
2022-09-22T04:25:55.556Z,9.33
2022-09-22T04:28:39.495Z,9.47
2022-09-22T04:31:24.191Z,9.71
2022-09-22T04:34:09.583Z,9.59
2022-09-22T04:36:53.654Z,9.85
2022-09-22T04:39:37.978Z,9.17
2022-09-22T04:42:21.946Z,9.64
2022-09-22T04:45:07.132Z,9.87
2022-09-22T04:47:53.148Z,10.02
2022-09-22T04:50:38.634Z,10.62
2022-09-22T04:53:22.959Z,10.21
2022-09-22T04:56:07.450Z,10.81
2022-09-22T04:58:51.429Z,10.93
2022-09-22T05:01:35.714Z,10.52
2022-09-22T05:04:19.606Z,11.01
2022-09-22T05:07:04.896Z,10.75
2022-09-22T05:09:48.733Z,10.47
2022-09-22T05:12:32.652Z,10.99
2022-09-22T05:15:16.574Z,10.93
2022-09-22T05:18:00.449Z,10.98
2022-09-22T05:20:44.777Z,10.64
2022-09-22T05:23:30.377Z,10.84
2022-09-22T05:26:14.227Z,11.01
2022-09-22T05:28:58.557Z,10.87
2022-09-22T05:31:42.384Z,10.68
2022-09-22T05:34:26.202Z,11.56
2022-09-22T05:37:10.034Z,11.19
2022-09-22T05:39:55.178Z,11.52
2022-09-22T05:42:42.246Z,11.16
2022-09-22T05:45:26.079Z,11.31
2022-09-22T05:48:09.959Z,11.22
2022-09-22T05:50:53.733Z,11.51
2022-09-22T05:53:37.494Z,11.33
2022-09-22T05:56:22.603Z,11.87
2022-09-22T05:59:06.335Z,11.96
2022-09-22T06:01:50.202Z,11.80
2022-09-22T06:04:34.051Z,11.81
2022-09-22T06:07:20.301Z,11.43
2022-09-22T06:10:04.031Z,11.66
2022-09-22T06:12:49.457Z,11.49
2022-09-22T06:15:34.006Z,11.98
2022-09-22T06:18:24.173Z,11.67
2022-09-22T06:21:08.468Z,12.09
2022-09-22T06:23:52.458Z,12.39
2022-09-22T06:26:36.206Z,12.05
2022-09-22T06:29:21.360Z,11.85
2022-09-22T06:32:05.267Z,11.77
2022-09-22T06:34:49.107Z,12.13
2022-09-22T06:37:33.302Z,11.97
2022-09-22T06:40:17.690Z,12.29
2022-09-22T06:43:07.673Z,12.39
2022-09-22T06:45:53.564Z,12.22
2022-09-22T06:48:37.902Z,13.29
2022-09-22T06:51:21.669Z,12.95
2022-09-22T06:54:07.000Z,12.93
2022-09-22T06:56:50.804Z,13.53
2022-09-22T06:59:37.944Z,13.89
2022-09-22T07:02:23.365Z,13.89
2022-09-22T07:05:08.242Z,13.55
2022-09-22T07:07:51.886Z,14.12
2022-09-22T07:10:38.030Z,13.98
2022-09-22T07:13:22.403Z,13.88
2022-09-22T07:16:09.126Z,13.30
2022-09-22T07:18:56.366Z,13.19
2022-09-22T07:21:40.544Z,13.61
2022-09-22T07:24:24.418Z,14.20
2022-09-22T07:27:08.173Z,13.96
2022-09-22T07:29:52.322Z,13.54
2022-09-22T07:32:36.105Z,13.18
2022-09-22T07:35:21.306Z,13.29
2022-09-22T07:38:05.219Z,13.58
2022-09-22T07:40:55.588Z,13.66
2022-09-22T07:43:39.945Z,13.04
2022-09-22T07:46:23.983Z,13.12
2022-09-22T07:49:08.324Z,13.70
2022-09-22T07:51:55.196Z,14.34
2022-09-22T07:54:39.928Z,14.42
2022-09-22T07:57:24.079Z,14.82
2022-09-22T08:00:09.426Z,14.89
2022-09-22T08:02:57.955Z,15.29
2022-09-22T08:05:41.929Z,15.25
2022-09-22T08:08:27.426Z,14.82
2022-09-22T08:11:15.170Z,15.17
2022-09-22T08:14:00.983Z,15.39
2022-09-22T08:16:46.144Z,16.39
2022-09-22T08:19:34.039Z,15.78
2022-09-22T08:22:18.891Z,15.61
2022-09-22T08:25:04.976Z,15.34
2022-09-22T08:27:49.004Z,15.66
2022-09-22T08:30:32.951Z,15.42
2022-09-22T08:33:17.272Z,15.79
2022-09-22T08:36:03.939Z,15.39
2022-09-22T08:38:49.755Z,15.56
2022-09-22T08:41:47.066Z,16.00
2022-09-22T08:44:37.549Z,16.03
2022-09-22T08:47:42.341Z,16.38
2022-09-22T08:50:51.394Z,16.65
2022-09-22T08:53:41.570Z,16.87
2022-09-22T08:56:29.336Z,16.61
2022-09-22T08:59:20.981Z,16.44
2022-09-22T09:02:38.210Z,16.90
2022-09-22T09:05:54.650Z,16.75
2022-09-22T09:09:20.110Z,16.98
2022-09-22T09:12:19.445Z,16.34
2022-09-22T09:15:29.057Z,16.94
2022-09-22T09:18:16.812Z,17.37
2022-09-22T09:21:04.875Z,17.20
2022-09-22T09:27:07.815Z,17.54
2022-09-22T09:30:01.408Z,17.04
2022-09-22T09:32:51.994Z,17.38
2022-09-22T09:35:44.369Z,17.23
2022-09-22T09:38:31.106Z,17.30
2022-09-22T09:41:19.175Z,17.35
2022-09-22T09:44:05.747Z,17.52
2022-09-22T09:46:58.296Z,17.31
2022-09-22T09:49:44.086Z,18.21
2022-09-22T09:52:29.466Z,18.08
2022-09-22T09:55:27.415Z,17.62
2022-09-22T09:58:35.333Z,17.51
2022-09-22T10:01:18.544Z,17.28
2022-09-22T10:04:02.896Z,18.03
2022-09-22T10:06:48.844Z,18.12
2022-09-22T10:09:32.942Z,17.94
2022-09-22T10:12:29.764Z,17.92
2022-09-22T10:15:25.904Z,17.50
2022-09-22T10:18:33.894Z,17.08
2022-09-22T10:21:19.655Z,16.96
2022-09-22T10:24:25.621Z,17.89
2022-09-22T10:27:24.278Z,18.02
2022-09-22T10:30:22.737Z,17.38
2022-09-22T10:33:15.703Z,18.32
2022-09-22T10:36:10.981Z,18.50
2022-09-22T10:38:59.654Z,17.55
2022-09-22T10:41:48.334Z,17.58
2022-09-22T10:44:39.330Z,18.34
2022-09-22T10:47:32.467Z,17.84
2022-09-22T10:50:41.301Z,18.08
2022-09-22T10:53:40.011Z,18.94
2022-09-22T10:56:34.263Z,18.34
2022-09-22T10:59:37.566Z,18.36
2022-09-22T11:03:15.084Z,18.05
2022-09-22T11:06:27.652Z,18.06
2022-09-22T11:09:34.037Z,18.42
2022-09-22T11:12:30.991Z,18.07
2022-09-22T11:15:40.046Z,18.17
2022-09-22T11:18:43.387Z,18.05
2022-09-22T11:21:39.752Z,18.02
2022-09-22T11:24:38.292Z,18.00
2022-09-22T11:27:36.491Z,17.96
2022-09-22T11:30:23.062Z,17.98
2022-09-22T11:33:31.954Z,18.75
2022-09-22T11:36:26.509Z,18.58
2022-09-22T11:39:22.039Z,17.47
2022-09-22T11:42:19.630Z,17.66
2022-09-22T11:45:09.723Z,17.96
2022-09-22T11:48:06.489Z,18.14
2022-09-22T11:51:04.885Z,17.86
2022-09-22T11:54:04.513Z,18.03
2022-09-22T11:56:51.509Z,17.89
2022-09-22T11:59:41.822Z,17.56
2022-09-22T12:02:30.660Z,17.70
2022-09-22T12:05:19.999Z,17.98
2022-09-22T12:08:08.456Z,17.70
2022-09-22T12:10:52.875Z,18.31
2022-09-22T12:13:42.117Z,17.66
2022-09-22T12:16:31.883Z,18.21
2022-09-22T12:19:25.319Z,17.86
2022-09-22T12:22:17.932Z,17.78
2022-09-22T12:25:03.463Z,17.42
2022-09-22T12:27:47.398Z,17.87
2022-09-22T12:30:31.235Z,17.90
2022-09-22T12:33:17.226Z,18.14
2022-09-22T12:36:02.315Z,18.37
2022-09-22T12:38:46.915Z,18.98
2022-09-22T12:41:32.275Z,18.58
2022-09-22T12:44:23.142Z,18.85
2022-09-22T12:47:09.259Z,18.52
2022-09-22T12:49:57.494Z,17.82
2022-09-22T12:53:04.335Z,18.44
2022-09-22T12:55:48.715Z,18.79
2022-09-22T12:58:44.372Z,18.80
2022-09-22T13:01:37.266Z,18.91
2022-09-22T13:04:21.120Z,18.60
2022-09-22T13:07:06.127Z,18.57
2022-09-22T13:09:49.824Z,18.57
2022-09-22T13:12:33.586Z,18.73
2022-09-22T13:15:21.111Z,18.75
2022-09-22T13:18:05.089Z,18.35
2022-09-22T13:20:49.678Z,18.43
2022-09-22T13:23:33.435Z,18.48
2022-09-22T13:26:19.923Z,17.96
2022-09-22T13:29:12.134Z,18.39
2022-09-22T13:31:58.008Z,18.41
2022-09-22T13:34:41.678Z,18.74
2022-09-22T13:37:26.142Z,18.05
2022-09-22T13:40:12.397Z,17.85
2022-09-22T13:43:00.281Z,18.33
2022-09-22T13:45:46.984Z,18.08
2022-09-22T13:48:35.640Z,17.92
2022-09-22T13:51:19.760Z,18.82
2022-09-22T13:54:04.990Z,18.36
2022-09-22T13:56:49.307Z,18.28
2022-09-22T13:59:39.844Z,19.07
2022-09-22T14:02:30.778Z,18.45
2022-09-22T14:05:23.050Z,18.63
2022-09-22T14:08:12.745Z,17.74
2022-09-22T14:10:58.972Z,17.61
2022-09-22T14:13:45.203Z,17.78
2022-09-22T14:16:34.239Z,17.49
2022-09-22T14:19:21.199Z,17.50
2022-09-22T14:22:15.507Z,17.68
2022-09-22T14:25:01.606Z,17.54
2022-09-22T14:27:52.081Z,18.33
2022-09-22T14:30:42.023Z,18.09
2022-09-22T14:33:29.082Z,17.90
2022-09-22T14:36:18.716Z,17.89
2022-09-22T14:39:10.033Z,17.66
2022-09-22T14:41:59.250Z,18.11
2022-09-22T14:44:45.861Z,17.65
2022-09-22T14:47:39.216Z,17.52
2022-09-22T14:50:39.500Z,17.61
2022-09-22T14:53:27.613Z,17.93
2022-09-22T14:56:20.296Z,17.70
2022-09-22T14:59:28.198Z,18.03
2022-09-22T15:02:33.553Z,17.96
2022-09-22T15:05:29.572Z,17.90
2022-09-22T15:08:18.848Z,17.40
2022-09-22T15:11:03.498Z,17.61
2022-09-22T15:13:52.846Z,17.73
2022-09-22T15:16:39.169Z,17.67
2022-09-22T15:19:23.060Z,17.73
2022-09-22T15:22:07.366Z,17.73
2022-09-22T15:24:51.317Z,17.82
2022-09-22T15:27:35.219Z,17.61
2022-09-22T15:30:21.988Z,17.41
2022-09-22T15:33:06.107Z,17.66
2022-09-22T15:35:53.880Z,17.45
2022-09-22T15:38:39.225Z,17.05
2022-09-22T15:41:22.999Z,16.92
2022-09-22T15:44:07.210Z,16.97
2022-09-22T15:46:54.930Z,16.73
2022-09-22T15:49:38.595Z,16.73
2022-09-22T15:52:22.382Z,16.69
2022-09-22T15:55:06.494Z,16.68
2022-09-22T15:57:54.882Z,16.66
2022-09-22T16:00:39.019Z,16.45
2022-09-22T16:03:24.786Z,16.52
2022-09-22T16:06:11.772Z,16.44
2022-09-22T16:08:56.477Z,16.09
2022-09-22T16:11:40.138Z,16.00
2022-09-22T16:14:24.100Z,15.57
2022-09-22T16:17:08.395Z,15.54
2022-09-22T16:19:53.793Z,15.48
2022-09-22T16:22:37.769Z,14.94
2022-09-22T16:25:21.937Z,14.88
2022-09-22T16:28:07.700Z,14.88
2022-09-22T16:30:51.743Z,14.53
2022-09-22T16:33:35.709Z,14.64
2022-09-22T16:36:21.612Z,14.80
2022-09-22T16:39:05.606Z,14.74
2022-09-22T16:41:49.500Z,14.68
2022-09-22T16:44:33.199Z,14.42
2022-09-22T16:47:18.491Z,14.34
2022-09-22T16:50:02.391Z,14.49
2022-09-22T16:52:48.345Z,14.28
2022-09-22T16:55:35.579Z,13.96
2022-09-22T16:58:20.948Z,13.66
2022-09-22T17:01:05.132Z,13.71
2022-09-22T17:03:50.722Z,13.31
2022-09-22T17:06:36.186Z,13.01
2022-09-22T17:09:21.782Z,13.61
2022-09-22T17:12:10.727Z,13.72
2022-09-22T17:14:54.407Z,13.65
2022-09-22T17:17:39.663Z,13.18
2022-09-22T17:20:24.088Z,13.33
2022-09-22T17:23:08.032Z,13.51
2022-09-22T17:25:53.160Z,13.25
2022-09-22T17:28:37.041Z,13.34
2022-09-22T17:31:21.334Z,13.39
2022-09-22T17:34:05.226Z,13.41
2022-09-22T17:36:49.050Z,13.50
2022-09-22T17:39:32.890Z,13.61
2022-09-22T17:42:18.438Z,13.51
2022-09-22T17:45:02.966Z,13.45
2022-09-22T17:48:04.675Z,13.54
2022-09-22T17:51:08.139Z,13.19
2022-09-22T17:54:08.405Z,13.34
2022-09-22T17:56:52.224Z,13.21
2022-09-22T17:59:38.331Z,13.29
2022-09-22T18:02:22.223Z,13.19
2022-09-22T18:05:07.016Z,12.81
2022-09-22T18:07:53.789Z,12.94
2022-09-22T18:10:37.689Z,12.44
2022-09-22T18:13:21.430Z,12.77
2022-09-22T18:16:21.187Z,12.91
2022-09-22T18:19:05.795Z,12.70
2022-09-22T18:21:49.738Z,12.55
2022-09-22T18:24:33.466Z,12.44
2022-09-22T18:27:19.712Z,12.45
2022-09-22T18:30:05.207Z,12.48
2022-09-22T18:32:50.463Z,12.39
2022-09-22T18:35:34.583Z,12.70
2022-09-22T18:38:18.410Z,12.64
2022-09-22T18:41:02.383Z,12.00
2022-09-22T18:43:46.243Z,12.56
2022-09-22T18:46:30.997Z,12.85
2022-09-22T18:49:17.258Z,12.58
2022-09-22T18:52:02.840Z,12.80
2022-09-22T18:54:46.952Z,12.62
2022-09-22T18:57:30.898Z,12.49
2022-09-22T19:00:16.241Z,12.83
2022-09-22T19:03:00.640Z,12.69
2022-09-22T19:05:46.163Z,13.02
2022-09-22T19:08:30.050Z,13.06
2022-09-22T19:11:17.552Z,13.03
2022-09-22T19:14:02.223Z,13.23
2022-09-22T19:16:46.781Z,13.12
2022-09-22T19:19:30.750Z,13.29
2022-09-22T19:22:15.996Z,13.30
2022-09-22T19:25:04.304Z,13.29
2022-09-22T19:27:48.835Z,13.25
2022-09-22T19:30:32.704Z,13.14
2022-09-22T19:33:16.723Z,13.18
2022-09-22T19:36:00.759Z,13.11
2022-09-22T19:38:45.907Z,13.06
2022-09-22T19:41:29.669Z,12.94
2022-09-22T19:44:13.929Z,12.81
2022-09-22T19:46:57.842Z,12.69
2022-09-22T19:49:42.296Z,12.61
2022-09-22T19:52:26.198Z,12.65
2022-09-22T19:55:12.583Z,12.40
2022-09-22T19:57:56.368Z,12.23
2022-09-22T20:00:40.970Z,12.30
2022-09-22T20:03:24.690Z,12.37
2022-09-22T20:06:08.557Z,12.38
2022-09-22T20:08:55.835Z,12.57
2022-09-22T20:11:43.955Z,12.62
2022-09-22T20:14:29.896Z,12.73
2022-09-22T20:17:13.944Z,12.65
2022-09-22T20:19:57.731Z,12.72
2022-09-22T20:22:42.080Z,12.40
2022-09-22T20:25:28.672Z,12.20
2022-09-22T20:28:14.155Z,12.46
2022-09-22T20:30:57.970Z,12.63
2022-09-22T20:33:41.936Z,12.62
2022-09-22T20:36:25.670Z,12.46
2022-09-22T20:39:09.748Z,12.64
2022-09-22T20:41:53.472Z,12.58
2022-09-22T20:44:39.031Z,12.69
2022-09-22T20:47:25.918Z,12.49
2022-09-22T20:50:11.981Z,12.36
2022-09-22T20:52:56.233Z,12.57
2022-09-22T20:55:39.916Z,12.51
2022-09-22T20:58:23.834Z,12.48
2022-09-22T21:01:10.565Z,12.44
2022-09-22T21:03:54.388Z,12.39
2022-09-22T21:06:38.158Z,12.45
2022-09-22T21:09:38.977Z,11.84
2022-09-22T21:12:25.281Z,11.71
2022-09-22T21:15:12.841Z,11.80
2022-09-22T21:17:58.596Z,11.60
2022-09-22T21:20:42.597Z,11.57
2022-09-22T21:23:26.587Z,11.59
2022-09-22T21:26:12.577Z,11.54
2022-09-22T21:28:57.019Z,11.63
2022-09-22T21:31:41.219Z,11.67
2022-09-22T21:34:26.792Z,11.80
2022-09-22T21:37:11.083Z,11.83
2022-09-22T21:39:54.898Z,11.66
2022-09-22T21:42:38.788Z,11.63
2022-09-22T21:45:22.576Z,11.79
2022-09-22T21:48:06.323Z,11.67
2022-09-22T21:50:57.705Z,11.99
2022-09-22T21:53:44.126Z,12.02
2022-09-22T21:56:30.125Z,11.77
2022-09-22T21:59:14.749Z,11.95
2022-09-22T22:01:58.707Z,11.73
2022-09-22T22:04:43.954Z,11.61
2022-09-22T22:07:29.089Z,11.67
2022-09-22T22:10:12.802Z,11.79
2022-09-22T22:12:56.691Z,11.83
2022-09-22T22:15:41.038Z,11.89
2022-09-22T22:18:24.775Z,11.94
2022-09-22T22:21:10.802Z,11.88
2022-09-22T22:24:14.126Z,11.98
2022-09-22T22:27:01.500Z,12.11
2022-09-22T22:29:46.721Z,11.73
2022-09-22T22:32:30.414Z,12.07
2022-09-22T22:35:14.294Z,12.23
2022-09-22T22:37:57.996Z,12.00
2022-09-22T22:40:43.274Z,11.84
2022-09-22T22:43:27.247Z,11.93
2022-09-22T22:46:16.677Z,11.91
2022-09-22T22:49:00.925Z,11.67
2022-09-22T22:51:44.826Z,11.93
2022-09-22T22:54:28.674Z,12.05
2022-09-22T22:57:13.800Z,12.14
2022-09-22T22:59:58.218Z,11.87
2022-09-22T23:02:41.926Z,12.17
2022-09-22T23:05:25.681Z,11.92
2022-09-22T23:08:09.870Z,11.88
2022-09-22T23:11:02.508Z,11.96
2022-09-22T23:13:51.022Z,12.11
2022-09-22T23:16:37.799Z,12.07
2022-09-22T23:19:21.564Z,11.91
2022-09-22T23:22:05.769Z,11.65
2022-09-22T23:24:49.593Z,11.58
2022-09-22T23:27:33.350Z,11.47
2022-09-22T23:30:18.810Z,12.00
2022-09-22T23:33:02.730Z,11.81
2022-09-22T23:35:54.617Z,11.96
2022-09-22T23:38:38.460Z,12.04
2022-09-22T23:41:22.617Z,11.95
2022-09-22T23:44:07.247Z,11.78
2022-09-22T23:46:52.431Z,12.00
2022-09-22T23:49:36.067Z,11.87
2022-09-22T23:52:19.968Z,11.92
2022-09-22T23:55:03.778Z,11.96
2022-09-22T23:57:47.911Z,11.83
